sensor_id;sensor_type;location;lat;lon;timestamp;pressure;altitude;pressure_sealevel;temperature;humidity
44988;BME280;35735;52.226;21.254;2022-11-04T00:03:25;100241.78;;;6.27;100.00
44988;BME280;35735;52.226;21.254;2022-11-04T00:08:26;100241.81;;;6.28;100.00
44988;BME280;35735;52.226;21.254;2022-11-04T00:13:29;100240.03;;;6.29;100.00
44988;BME280;35735;52.226;21.254;2022-11-04T00:18:29;100231.91;;;6.24;100.00
44988;BME280;35735;52.226;21.254;2022-11-04T00:23:30;100231.81;;;6.17;100.00
44988;BME280;35735;52.226;21.254;2022-11-04T00:28:31;100227.31;;;6.16;100.00
44988;BME280;35735;52.226;21.254;2022-11-04T00:33:31;100211.09;;;6.05;100.00
44988;BME280;35735;52.226;21.254;2022-11-04T00:38:32;100203.03;;;6.03;100.00
44988;BME280;35735;52.226;21.254;2022-11-04T00:43:32;100201.22;;;6.02;100.00
44988;BME280;35735;52.226;21.254;2022-11-04T00:48:33;100196.75;;;6.03;100.00
44988;BME280;35735;52.226;21.254;2022-11-04T00:53:33;100183.28;;;5.97;100.00
44988;BME280;35735;52.226;21.254;2022-11-04T00:58:34;100180.66;;;6.01;100.00
44988;BME280;35735;52.226;21.254;2022-11-04T01:03:34;100177.13;;;6.04;100.00
44988;BME280;35735;52.226;21.254;2022-11-04T01:08:35;100175.38;;;6.06;100.00
44988;BME280;35735;52.226;21.254;2022-11-04T01:13:36;100160.97;;;5.99;100.00
44988;BME280;35735;52.226;21.254;2022-11-04T01:18:38;100158.16;;;5.93;100.00
44988;BME280;35735;52.226;21.254;2022-11-04T01:23:40;100148.34;;;5.90;100.00
44988;BME280;35735;52.226;21.254;2022-11-04T01:28:41;100135.78;;;5.88;100.00
44988;BME280;35735;52.226;21.254;2022-11-04T01:33:43;100126.88;;;5.89;100.00
44988;BME280;35735;52.226;21.254;2022-11-04T01:38:43;100124.25;;;5.92;100.00
44988;BME280;35735;52.226;21.254;2022-11-04T01:43:47;100121.66;;;5.97;100.00
44988;BME280;35735;52.226;21.254;2022-11-04T01:54:29;100106.53;;;6.00;100.00
44988;BME280;35735;52.226;21.254;2022-11-04T01:59:37;100088.75;;;6.05;100.00
44988;BME280;35735;52.226;21.254;2022-11-04T02:04:39;100089.62;;;6.06;100.00
44988;BME280;35735;52.226;21.254;2022-11-04T02:09:41;100087.00;;;6.09;100.00
44988;BME280;35735;52.226;21.254;2022-11-04T02:14:45;100069.16;;;6.12;100.00
44988;BME280;35735;52.226;21.254;2022-11-04T02:20:18;100054.91;;;6.14;100.00
44988;BME280;35735;52.226;21.254;2022-11-04T02:31:13;100055.84;;;6.17;100.00
44988;BME280;35735;52.226;21.254;2022-11-04T02:36:37;100029.97;;;6.21;100.00
44988;BME280;35735;52.226;21.254;2022-11-04T02:41:54;100019.25;;;6.21;100.00
44988;BME280;35735;52.226;21.254;2022-11-04T02:47:05;100021.94;;;6.22;100.00
44988;BME280;35735;52.226;21.254;2022-11-04T02:52:11;100013.97;;;6.27;100.00
44988;BME280;35735;52.226;21.254;2022-11-04T02:57:21;100009.59;;;6.35;100.00
44988;BME280;35735;52.226;21.254;2022-11-04T03:02:29;100009.59;;;6.35;100.00
44988;BME280;35735;52.226;21.254;2022-11-04T03:07:35;100006.91;;;6.35;100.00
44988;BME280;35735;52.226;21.254;2022-11-04T03:12:45;99997.97;;;6.36;100.00
44988;BME280;35735;52.226;21.254;2022-11-04T03:17:54;99994.34;;;6.31;100.00
44988;BME280;35735;52.226;21.254;2022-11-04T03:23:00;99992.53;;;6.27;100.00
44988;BME280;35735;52.226;21.254;2022-11-04T03:28:21;99989.88;;;6.30;100.00
44988;BME280;35735;52.226;21.254;2022-11-04T03:33:49;99989.91;;;6.36;100.00
44988;BME280;35735;52.226;21.254;2022-11-04T03:38:51;99985.50;;;6.43;100.00
44988;BME280;35735;52.226;21.254;2022-11-04T03:43:52;99987.41;;;6.50;100.00
44988;BME280;35735;52.226;21.254;2022-11-04T03:48:53;99986.56;;;6.57;100.00
44988;BME280;35735;52.226;21.254;2022-11-04T03:53:55;99983.94;;;6.62;100.00
44988;BME280;35735;52.226;21.254;2022-11-04T04:04:38;99982.12;;;6.61;100.00
44988;BME280;35735;52.226;21.254;2022-11-04T04:10:27;99976.81;;;6.65;100.00
44988;BME280;35735;52.226;21.254;2022-11-04T04:15:20;99975.00;;;6.66;100.00
44988;BME280;35735;52.226;21.254;2022-11-04T04:20:26;99975.03;;;6.69;100.00
44988;BME280;35735;52.226;21.254;2022-11-04T04:25:30;99962.50;;;6.68;100.00
44988;BME280;35735;52.226;21.254;2022-11-04T04:30:32;99956.22;;;6.66;100.00
44988;BME280;35735;52.226;21.254;2022-11-04T04:35:41;99957.13;;;6.68;100.00
44988;BME280;35735;52.226;21.254;2022-11-04T04:40:46;99948.22;;;6.69;100.00
44988;BME280;35735;52.226;21.254;2022-11-04T04:45:54;99940.22;;;6.74;100.00
44988;BME280;35735;52.226;21.254;2022-11-04T04:50:55;99946.47;;;6.74;100.00
44988;BME280;35735;52.226;21.254;2022-11-04T04:55:56;99942.00;;;6.76;100.00
44988;BME280;35735;52.226;21.254;2022-11-04T05:00:57;99945.59;;;6.77;100.00
44988;BME280;35735;52.226;21.254;2022-11-04T05:05:58;99946.50;;;6.79;100.00
44988;BME280;35735;52.226;21.254;2022-11-04T05:10:59;99951.88;;;6.80;100.00
44988;BME280;35735;52.226;21.254;2022-11-04T05:16:04;99955.47;;;6.82;100.00
44988;BME280;35735;52.226;21.254;2022-11-04T05:21:10;99945.63;;;6.83;100.00
44988;BME280;35735;52.226;21.254;2022-11-04T05:26:12;99939.41;;;6.85;100.00
44988;BME280;35735;52.226;21.254;2022-11-04T05:31:12;99936.72;;;6.85;100.00
44988;BME280;35735;52.226;21.254;2022-11-04T05:36:14;99937.59;;;6.83;100.00
44988;BME280;35735;52.226;21.254;2022-11-04T05:41:16;99938.50;;;6.86;100.00
44988;BME280;35735;52.226;21.254;2022-11-04T05:46:16;99944.84;;;6.92;100.00
44988;BME280;35735;52.226;21.254;2022-11-04T05:51:20;99936.78;;;6.95;100.00
44988;BME280;35735;52.226;21.254;2022-11-04T05:56:22;99936.78;;;6.92;100.00
44988;BME280;35735;52.226;21.254;2022-11-04T06:06:34;99923.34;;;6.90;100.00
44988;BME280;35735;52.226;21.254;2022-11-04T06:11:36;99926.91;;;6.87;100.00
44988;BME280;35735;52.226;21.254;2022-11-04T06:16:36;99912.56;;;6.82;100.00
44988;BME280;35735;52.226;21.254;2022-11-04T06:21:37;99909.00;;;6.83;100.00
44988;BME280;35735;52.226;21.254;2022-11-04T06:26:37;99909.00;;;6.90;100.00
44988;BME280;35735;52.226;21.254;2022-11-04T06:31:38;99900.97;;;6.91;100.00
44988;BME280;35735;52.226;21.254;2022-11-04T06:36:38;99900.09;;;6.89;100.00
44988;BME280;35735;52.226;21.254;2022-11-04T06:41:39;99890.25;;;6.93;100.00
44988;BME280;35735;52.226;21.254;2022-11-04T06:46:41;99892.06;;;6.94;100.00
44988;BME280;35735;52.226;21.254;2022-11-04T06:51:42;99894.78;;;7.00;100.00
44988;BME280;35735;52.226;21.254;2022-11-04T06:56:43;99884.94;;;6.99;100.00
44988;BME280;35735;52.226;21.254;2022-11-04T07:01:44;99883.16;;;7.02;100.00
44988;BME280;35735;52.226;21.254;2022-11-04T07:06:45;99884.94;;;6.99;100.00
44988;BME280;35735;52.226;21.254;2022-11-04T07:11:45;99870.66;;;7.04;100.00
44988;BME280;35735;52.226;21.254;2022-11-04T07:16:49;99882.28;;;7.02;100.00
44988;BME280;35735;52.226;21.254;2022-11-04T07:21:49;99876.91;;;7.02;100.00
44988;BME280;35735;52.226;21.254;2022-11-04T07:26:50;99880.50;;;7.04;100.00
44988;BME280;35735;52.226;21.254;2022-11-04T07:31:53;99876.97;;;7.13;100.00
44988;BME280;35735;52.226;21.254;2022-11-04T07:36:54;99870.72;;;7.21;100.00
44988;BME280;35735;52.226;21.254;2022-11-04T07:41:54;99866.31;;;7.33;100.00
44988;BME280;35735;52.226;21.254;2022-11-04T07:46:55;99869.06;;;7.42;100.00
44988;BME280;35735;52.226;21.254;2022-11-04T07:51:56;99867.28;;;7.47;100.00
44988;BME280;35735;52.226;21.254;2022-11-04T07:56:57;99853.84;;;7.53;100.00
44988;BME280;35735;52.226;21.254;2022-11-04T08:01:57;99849.41;;;7.63;100.00
44988;BME280;35735;52.226;21.254;2022-11-04T08:06:58;99858.38;;;7.71;100.00
44988;BME280;35735;52.226;21.254;2022-11-04T08:11:58;99851.25;;;7.81;100.00
44988;BME280;35735;52.226;21.254;2022-11-04T08:16:59;99850.41;;;8.05;100.00
44988;BME280;35735;52.226;21.254;2022-11-04T08:21:59;99848.63;;;8.27;100.00
44988;BME280;35735;52.226;21.254;2022-11-04T08:27:00;99859.38;;;8.27;100.00
44988;BME280;35735;52.226;21.254;2022-11-04T08:32:01;99849.50;;;8.23;100.00
44988;BME280;35735;52.226;21.254;2022-11-04T08:37:01;99841.47;;;8.17;100.00
44988;BME280;35735;52.226;21.254;2022-11-04T08:42:02;99844.16;;;8.17;100.00
44988;BME280;35735;52.226;21.254;2022-11-04T08:47:03;99841.44;;;8.20;100.00
44988;BME280;35735;52.226;21.254;2022-11-04T08:52:03;99832.47;;;8.21;100.00
44988;BME280;35735;52.226;21.254;2022-11-04T08:57:04;99827.13;;;8.24;100.00
44988;BME280;35735;52.226;21.254;2022-11-04T09:02:05;99828.91;;;8.25;100.00
44988;BME280;35735;52.226;21.254;2022-11-04T09:07:05;99818.13;;;8.28;100.00
44988;BME280;35735;52.226;21.254;2022-11-04T09:12:09;99820.81;;;8.31;100.00
44988;BME280;35735;52.226;21.254;2022-11-04T09:17:10;99809.19;;;8.32;100.00
44988;BME280;35735;52.226;21.254;2022-11-04T09:22:11;99799.31;;;8.30;100.00
44988;BME280;35735;52.226;21.254;2022-11-04T09:27:11;99802.00;;;8.31;100.00
44988;BME280;35735;52.226;21.254;2022-11-04T09:32:12;99793.94;;;8.33;100.00
44988;BME280;35735;52.226;21.254;2022-11-04T09:37:12;99793.06;;;8.39;100.00
44988;BME280;35735;52.226;21.254;2022-11-04T09:42:23;99793.06;;;8.45;100.00
44988;BME280;35735;52.226;21.254;2022-11-04T09:47:34;99793.06;;;8.51;100.00
44988;BME280;35735;52.226;21.254;2022-11-04T09:52:41;99789.44;;;8.58;100.00
44988;BME280;35735;52.226;21.254;2022-11-04T09:57:44;99781.38;;;8.64;100.00
44988;BME280;35735;52.226;21.254;2022-11-04T10:08:51;99768.75;;;8.83;100.00
44988;BME280;35735;52.226;21.254;2022-11-04T10:19:51;99760.59;;;9.11;100.00
44988;BME280;35735;52.226;21.254;2022-11-04T10:25:20;99749.72;;;9.25;100.00
44988;BME280;35735;52.226;21.254;2022-11-04T10:30:23;99748.78;;;9.35;100.00
44988;BME280;35735;52.226;21.254;2022-11-04T10:35:30;99733.44;;;9.46;100.00
44988;BME280;35735;52.226;21.254;2022-11-04T10:40:36;99734.25;;;9.61;100.00
44988;BME280;35735;52.226;21.254;2022-11-04T10:51:23;99721.44;;;9.92;100.00
44988;BME280;35735;52.226;21.254;2022-11-04T10:56:41;99709.53;;;10.16;100.00
44988;BME280;35735;52.226;21.254;2022-11-04T11:01:49;99701.28;;;10.30;100.00
44988;BME280;35735;52.226;21.254;2022-11-04T11:06:53;99689.56;;;10.39;100.00
44988;BME280;35735;52.226;21.254;2022-11-04T11:11:57;99702.03;;;10.49;100.00
44988;BME280;35735;52.226;21.254;2022-11-04T11:17:21;99691.03;;;10.66;100.00
44988;BME280;35735;52.226;21.254;2022-11-04T11:22:39;99689.06;;;10.79;100.00
44988;BME280;35735;52.226;21.254;2022-11-04T11:27:46;99687.22;;;10.84;100.00
44988;BME280;35735;52.226;21.254;2022-11-04T11:32:59;99685.44;;;10.83;100.00
44988;BME280;35735;52.226;21.254;2022-11-04T11:38:01;99680.84;;;10.90;100.00
44988;BME280;35735;52.226;21.254;2022-11-04T11:43:03;99669.16;;;10.89;100.00
44988;BME280;35735;52.226;21.254;2022-11-04T11:48:27;99662.78;;;10.95;100.00
44988;BME280;35735;52.226;21.254;2022-11-04T11:59:24;99661.62;;;11.13;100.00
44988;BME280;35735;52.226;21.254;2022-11-04T12:04:28;99665.16;;;11.18;100.00
44988;BME280;35735;52.226;21.254;2022-11-04T12:09:40;99659.72;;;11.21;100.00
44988;BME280;35735;52.226;21.254;2022-11-04T12:21:10;99653.22;;;11.33;100.00
44988;BME280;35735;52.226;21.254;2022-11-04T12:31:50;99643.16;;;11.43;100.00
44988;BME280;35735;52.226;21.254;2022-11-04T12:53:56;99622.88;;;11.72;99.95
44988;BME280;35735;52.226;21.254;2022-11-04T13:04:33;99621.69;;;11.88;98.00
44988;BME280;35735;52.226;21.254;2022-11-04T13:09:40;99617.12;;;11.93;97.88
44988;BME280;35735;52.226;21.254;2022-11-04T13:14:58;99615.22;;;11.98;97.85
44988;BME280;35735;52.226;21.254;2022-11-04T13:25:16;99618.97;;;11.88;97.69
44988;BME280;35735;52.226;21.254;2022-11-04T13:36:22;99615.62;;;11.72;97.46
44988;BME280;35735;52.226;21.254;2022-11-04T13:41:57;99627.50;;;11.65;97.12
44988;BME280;35735;52.226;21.254;2022-11-04T13:47:19;99631.16;;;11.61;97.25
44988;BME280;35735;52.226;21.254;2022-11-04T13:52:29;99624.88;;;11.59;97.82
44988;BME280;35735;52.226;21.254;2022-11-04T13:57:50;99631.12;;;11.62;97.85
44988;BME280;35735;52.226;21.254;2022-11-04T14:08:20;99636.66;;;11.56;97.37
44988;BME280;35735;52.226;21.254;2022-11-04T14:23:34;99649.53;;;11.37;97.15
44988;BME280;35735;52.226;21.254;2022-11-04T14:28:36;99641.63;;;11.26;97.39
44988;BME280;35735;52.226;21.254;2022-11-04T14:33:51;99633.66;;;11.17;97.59
44988;BME280;35735;52.226;21.254;2022-11-04T14:44:36;99638.44;;;10.98;98.27
44988;BME280;35735;52.226;21.254;2022-11-04T14:49:45;99647.59;;;10.86;98.99
44988;BME280;35735;52.226;21.254;2022-11-04T14:54:48;99637.81;;;10.78;99.42
44988;BME280;35735;52.226;21.254;2022-11-04T14:59:54;99639.72;;;10.69;99.87
44988;BME280;35735;52.226;21.254;2022-11-04T15:04:57;99631.72;;;10.62;100.00
44988;BME280;35735;52.226;21.254;2022-11-04T15:10:00;99638.13;;;10.53;100.00
44988;BME280;35735;52.226;21.254;2022-11-04T15:15:33;99640.03;;;10.43;100.00
44988;BME280;35735;52.226;21.254;2022-11-04T15:20:40;99647.28;;;10.41;100.00
44988;BME280;35735;52.226;21.254;2022-11-04T15:25:47;99634.72;;;10.35;100.00
44988;BME280;35735;52.226;21.254;2022-11-04T15:36:17;99633.88;;;10.29;100.00
44988;BME280;35735;52.226;21.254;2022-11-04T15:41:21;99634.81;;;10.26;100.00
44988;BME280;35735;52.226;21.254;2022-11-04T15:46:24;99647.41;;;10.26;100.00
44988;BME280;35735;52.226;21.254;2022-11-04T15:51:29;99642.03;;;10.26;100.00
44988;BME280;35735;52.226;21.254;2022-11-04T15:56:41;99651.00;;;10.26;100.00
44988;BME280;35735;52.226;21.254;2022-11-04T16:01:45;99649.22;;;10.24;100.00
44988;BME280;35735;52.226;21.254;2022-11-04T16:07:03;99660.00;;;10.22;100.00
44988;BME280;35735;52.226;21.254;2022-11-04T16:12:15;99671.69;;;10.26;100.00
44988;BME280;35735;52.226;21.254;2022-11-04T16:17:17;99668.09;;;10.24;100.00
44988;BME280;35735;52.226;21.254;2022-11-04T16:22:23;99663.63;;;10.24;100.00
44988;BME280;35735;52.226;21.254;2022-11-04T16:27:29;99668.16;;;10.19;100.00
44988;BME280;35735;52.226;21.254;2022-11-04T16:32:46;99659.25;;;10.12;100.00
44988;BME280;35735;52.226;21.254;2022-11-04T16:37:48;99661.97;;;10.09;100.00
44988;BME280;35735;52.226;21.254;2022-11-04T16:42:50;99655.69;;;10.07;100.00
44988;BME280;35735;52.226;21.254;2022-11-04T16:47:52;99653.91;;;10.06;100.00
44988;BME280;35735;52.226;21.254;2022-11-04T16:52:53;99654.81;;;10.05;100.00
44988;BME280;35735;52.226;21.254;2022-11-04T16:57:57;99661.12;;;10.04;100.00
44988;BME280;35735;52.226;21.254;2022-11-04T17:03:00;99661.06;;;10.07;100.00
44988;BME280;35735;52.226;21.254;2022-11-04T17:08:08;99655.66;;;10.10;100.00
44988;BME280;35735;52.226;21.254;2022-11-04T17:13:09;99662.91;;;10.05;100.00
44988;BME280;35735;52.226;21.254;2022-11-04T17:18:12;99657.50;;;10.05;100.00
44988;BME280;35735;52.226;21.254;2022-11-04T17:23:14;99642.28;;;10.02;100.00
44988;BME280;35735;52.226;21.254;2022-11-04T17:28:14;99641.41;;;9.99;100.00
44988;BME280;35735;52.226;21.254;2022-11-04T17:33:16;99638.75;;;9.96;100.00
44988;BME280;35735;52.226;21.254;2022-11-04T17:38:18;99618.03;;;9.98;100.00
44988;BME280;35735;52.226;21.254;2022-11-04T17:43:18;99618.06;;;9.95;100.00
44988;BME280;35735;52.226;21.254;2022-11-04T17:48:19;99612.66;;;9.96;100.00
44988;BME280;35735;52.226;21.254;2022-11-04T17:53:19;99602.78;;;9.94;100.00
44988;BME280;35735;52.226;21.254;2022-11-04T17:58:20;99612.72;;;9.89;100.00
44988;BME280;35735;52.226;21.254;2022-11-04T18:03:20;99598.41;;;9.85;100.00
44988;BME280;35735;52.226;21.254;2022-11-04T18:08:21;99603.78;;;9.87;100.00
44988;BME280;35735;52.226;21.254;2022-11-04T18:13:22;99598.41;;;9.83;100.00
44988;BME280;35735;52.226;21.254;2022-11-04T18:18:22;99595.69;;;9.85;100.00
44988;BME280;35735;52.226;21.254;2022-11-04T18:23:23;99594.84;;;9.81;100.00
44988;BME280;35735;52.226;21.254;2022-11-04T18:28:23;99582.34;;;9.76;100.00
44988;BME280;35735;52.226;21.254;2022-11-04T18:33:24;99585.94;;;9.75;100.00
44988;BME280;35735;52.226;21.254;2022-11-04T18:38:24;99585.03;;;9.77;100.00
44988;BME280;35735;52.226;21.254;2022-11-04T18:43:25;99598.44;;;9.80;100.00
44988;BME280;35735;52.226;21.254;2022-11-04T18:48:25;99587.72;;;9.77;100.00
44988;BME280;35735;52.226;21.254;2022-11-04T18:53:26;99590.41;;;9.79;100.00
44988;BME280;35735;52.226;21.254;2022-11-04T18:58:30;99589.50;;;9.75;100.00
44988;BME280;35735;52.226;21.254;2022-11-04T19:03:32;99584.13;;;9.74;100.00
44988;BME280;35735;52.226;21.254;2022-11-04T19:08:33;99584.13;;;9.75;100.00
44988;BME280;35735;52.226;21.254;2022-11-04T19:13:34;99590.44;;;9.74;100.00
44988;BME280;35735;52.226;21.254;2022-11-04T19:18:35;99594.03;;;9.72;100.00
44988;BME280;35735;52.226;21.254;2022-11-04T19:23:36;99600.34;;;9.72;100.00
44988;BME280;35735;52.226;21.254;2022-11-04T19:28:38;99605.75;;;9.71;100.00
44988;BME280;35735;52.226;21.254;2022-11-04T19:33:40;99590.47;;;9.68;100.00
44988;BME280;35735;52.226;21.254;2022-11-04T19:38:41;99593.16;;;9.71;100.00
44988;BME280;35735;52.226;21.254;2022-11-04T19:43:41;99600.38;;;9.68;100.00
44988;BME280;35735;52.226;21.254;2022-11-04T19:48:42;99598.56;;;9.68;100.00
44988;BME280;35735;52.226;21.254;2022-11-04T19:53:42;99611.16;;;9.69;100.00
44988;BME280;35735;52.226;21.254;2022-11-04T19:58:44;99599.53;;;9.64;100.00
44988;BME280;35735;52.226;21.254;2022-11-04T20:03:47;99595.00;;;9.66;100.00
44988;BME280;35735;52.226;21.254;2022-11-04T20:08:48;99587.84;;;9.62;100.00
44988;BME280;35735;52.226;21.254;2022-11-04T20:13:49;99585.22;;;9.57;100.00
44988;BME280;35735;52.226;21.254;2022-11-04T20:18:52;99580.69;;;9.61;100.00
44988;BME280;35735;52.226;21.254;2022-11-04T20:24:02;99584.31;;;9.54;100.00
44988;BME280;35735;52.226;21.254;2022-11-04T20:29:04;99599.63;;;9.50;100.00
44988;BME280;35735;52.226;21.254;2022-11-04T20:34:07;99600.56;;;9.48;100.00
44988;BME280;35735;52.226;21.254;2022-11-04T20:39:14;99604.16;;;9.46;100.00
44988;BME280;35735;52.226;21.254;2022-11-04T20:44:16;99590.69;;;9.43;100.00
44988;BME280;35735;52.226;21.254;2022-11-04T20:49:17;99589.84;;;9.41;100.00
44988;BME280;35735;52.226;21.254;2022-11-04T20:54:17;99592.53;;;9.38;100.00
44988;BME280;35735;52.226;21.254;2022-11-04T20:59:18;99597.06;;;9.36;100.00
44988;BME280;35735;52.226;21.254;2022-11-04T21:04:19;99595.34;;;9.29;100.00
44988;BME280;35735;52.226;21.254;2022-11-04T21:09:20;99591.72;;;9.30;100.00
44988;BME280;35735;52.226;21.254;2022-11-04T21:14:20;99600.72;;;9.29;100.00
44988;BME280;35735;52.226;21.254;2022-11-04T21:19:21;99609.69;;;9.28;100.00
44988;BME280;35735;52.226;21.254;2022-11-04T21:24:21;99604.31;;;9.28;100.00
44988;BME280;35735;52.226;21.254;2022-11-04T21:29:22;99601.62;;;9.23;100.00
44988;BME280;35735;52.226;21.254;2022-11-04T21:34:23;99602.56;;;9.21;100.00
44988;BME280;35735;52.226;21.254;2022-11-04T21:39:23;99585.47;;;9.23;100.00
44988;BME280;35735;52.226;21.254;2022-11-04T21:44:24;99588.19;;;9.20;100.00
44988;BME280;35735;52.226;21.254;2022-11-04T21:49:24;99571.19;;;9.17;100.00
44988;BME280;35735;52.226;21.254;2022-11-04T21:54:25;99578.41;;;9.12;100.00
44988;BME280;35735;52.226;21.254;2022-11-04T21:59:25;99576.63;;;9.09;100.00
44988;BME280;35735;52.226;21.254;2022-11-04T22:04:26;99577.53;;;9.08;100.00
44988;BME280;35735;52.226;21.254;2022-11-04T22:09:26;99585.62;;;9.05;100.00
44988;BME280;35735;52.226;21.254;2022-11-04T22:14:27;99581.19;;;9.02;100.00
44988;BME280;35735;52.226;21.254;2022-11-04T22:19:27;99583.84;;;9.05;100.00
44988;BME280;35735;52.226;21.254;2022-11-04T22:24:28;99589.19;;;9.07;100.00
44988;BME280;35735;52.226;21.254;2022-11-04T22:29:29;99593.69;;;9.06;100.00
44988;BME280;35735;52.226;21.254;2022-11-04T22:34:29;99598.22;;;9.00;100.00
44988;BME280;35735;52.226;21.254;2022-11-04T22:39:30;99600.91;;;9.01;100.00
44988;BME280;35735;52.226;21.254;2022-11-04T22:44:30;99593.69;;;9.06;100.00
44988;BME280;35735;52.226;21.254;2022-11-04T22:49:31;99595.50;;;9.04;100.00
44988;BME280;35735;52.226;21.254;2022-11-04T22:54:31;99589.25;;;9.04;100.00
44988;BME280;35735;52.226;21.254;2022-11-04T22:59:32;99583.84;;;9.05;100.00
44988;BME280;35735;52.226;21.254;2022-11-04T23:04:32;99582.09;;;8.98;100.00
44988;BME280;35735;52.226;21.254;2022-11-04T23:09:33;99585.72;;;8.94;100.00
44988;BME280;35735;52.226;21.254;2022-11-04T23:14:33;99586.59;;;8.96;100.00
44988;BME280;35735;52.226;21.254;2022-11-04T23:19:35;99592.00;;;8.93;100.00
44988;BME280;35735;52.226;21.254;2022-11-04T23:24:36;99603.63;;;8.94;100.00
44988;BME280;35735;52.226;21.254;2022-11-04T23:29:37;99595.56;;;8.94;100.00
44988;BME280;35735;52.226;21.254;2022-11-04T23:34:37;99604.56;;;8.91;100.00
44988;BME280;35735;52.226;21.254;2022-11-04T23:39:45;99598.25;;;8.97;100.00
44988;BME280;35735;52.226;21.254;2022-11-04T23:44:52;99601.84;;;8.99;100.00
44988;BME280;35735;52.226;21.254;2022-11-04T23:49:53;99599.09;;;9.03;100.00
44988;BME280;35735;52.226;21.254;2022-11-04T23:54:54;99600.03;;;9.02;100.00
44988;BME280;35735;52.226;21.254;2022-11-04T23:59:54;99603.59;;;9.01;100.00
